createdAt,value
2023-01-19T00:00:51.996Z,23.14
2023-01-19T00:03:18.838Z,23.13
2023-01-19T00:05:46.453Z,23.11
2023-01-19T00:08:15.917Z,23.11
2023-01-19T00:10:44.781Z,23.09
2023-01-19T00:13:11.488Z,23.06
2023-01-19T00:15:38.458Z,23.05
2023-01-19T00:18:05.376Z,23.07
2023-01-19T00:20:32.873Z,23.03
2023-01-19T00:22:59.990Z,23.04
2023-01-19T00:25:26.960Z,23.04
2023-01-19T00:27:53.543Z,22.99
2023-01-19T00:30:20.271Z,23.03
2023-01-19T00:32:46.881Z,23.03
2023-01-19T00:35:13.477Z,22.97
2023-01-19T00:37:40.045Z,23.01
2023-01-19T00:40:07.520Z,23.00
2023-01-19T00:42:45.857Z,23.01
2023-01-19T00:45:15.093Z,23.00
2023-01-19T00:47:42.373Z,22.89
2023-01-19T00:50:13.002Z,22.99
2023-01-19T00:52:40.858Z,22.98
2023-01-19T00:55:08.661Z,22.97
2023-01-19T00:57:35.290Z,22.94
2023-01-19T01:00:02.109Z,22.98
2023-01-19T01:02:29.321Z,22.97
2023-01-19T01:04:56.713Z,22.96
2023-01-19T01:07:24.786Z,22.96
2023-01-19T01:09:51.491Z,22.96
2023-01-19T01:12:18.207Z,22.96
2023-01-19T01:14:44.952Z,22.95
2023-01-19T01:17:14.261Z,22.92
2023-01-19T01:19:41.463Z,22.88
2023-01-19T01:22:09.730Z,22.92
2023-01-19T01:24:36.452Z,22.92
2023-01-19T01:27:03.923Z,22.91
2023-01-19T01:29:30.667Z,22.90
2023-01-19T01:31:57.363Z,22.88
2023-01-19T01:34:23.992Z,22.90
2023-01-19T01:36:51.408Z,22.88
2023-01-19T01:39:17.945Z,22.87
2023-01-19T01:41:44.591Z,22.87
2023-01-19T01:44:52.930Z,22.86
2023-01-19T01:47:33.452Z,22.85
2023-01-19T01:50:17.138Z,22.86
2023-01-19T01:53:07.149Z,22.85
2023-01-19T01:55:36.551Z,22.86
2023-01-19T01:58:04.786Z,22.85
2023-01-19T02:00:50.824Z,22.86
2023-01-19T02:03:17.705Z,22.86
2023-01-19T02:05:45.857Z,22.85
2023-01-19T02:08:44.558Z,22.83
2023-01-19T02:11:29.740Z,22.78
2023-01-19T02:13:56.422Z,22.85
2023-01-19T02:16:23.537Z,22.86
2023-01-19T02:18:50.419Z,22.87
2023-01-19T02:21:22.649Z,22.86
2023-01-19T02:23:54.057Z,22.87
2023-01-19T02:26:25.994Z,22.90
2023-01-19T02:28:57.512Z,22.92
2023-01-19T02:31:24.979Z,22.93
2023-01-19T02:33:52.747Z,22.97
2023-01-19T02:36:23.369Z,22.99
2023-01-19T02:38:51.043Z,22.98
2023-01-19T02:41:20.472Z,23.04
2023-01-19T02:43:49.062Z,23.07
2023-01-19T02:46:16.117Z,23.06
2023-01-19T02:48:42.858Z,23.13
2023-01-19T02:51:14.540Z,23.16
2023-01-19T02:54:20.189Z,23.19
2023-01-19T02:56:55.750Z,23.23
2023-01-19T02:59:31.345Z,23.27
2023-01-19T03:02:25.467Z,23.31
2023-01-19T03:05:29.653Z,23.31
2023-01-19T03:08:14.713Z,23.34
2023-01-19T03:10:46.638Z,23.39
2023-01-19T03:13:19.956Z,23.42
2023-01-19T03:15:51.167Z,23.45
2023-01-19T03:18:20.888Z,23.48
2023-01-19T03:20:49.618Z,23.51
2023-01-19T03:23:17.236Z,23.54
2023-01-19T03:25:47.470Z,23.56
2023-01-19T03:28:15.082Z,23.59
2023-01-19T03:30:48.234Z,23.61
2023-01-19T03:33:18.337Z,23.66
2023-01-19T03:35:49.089Z,23.68
2023-01-19T03:38:17.247Z,23.71
2023-01-19T03:40:45.159Z,23.73
2023-01-19T03:43:13.297Z,23.75
2023-01-19T03:45:40.225Z,23.78
2023-01-19T03:48:07.244Z,23.81
2023-01-19T03:50:33.897Z,23.81
2023-01-19T03:53:12.998Z,23.85
2023-01-19T03:55:42.624Z,23.89
2023-01-19T03:58:09.877Z,23.87
2023-01-19T04:00:36.916Z,23.92
2023-01-19T04:03:05.175Z,23.95
2023-01-19T04:05:32.351Z,23.97
2023-01-19T04:07:59.358Z,24.00
2023-01-19T04:10:26.045Z,24.02
2023-01-19T04:13:01.299Z,24.07
2023-01-19T04:15:29.450Z,24.11
2023-01-19T04:18:00.421Z,24.12
2023-01-19T04:20:28.257Z,24.15
2023-01-19T04:22:56.181Z,24.18
2023-01-19T04:25:22.859Z,24.19
2023-01-19T04:27:52.950Z,24.22
2023-01-19T04:30:20.016Z,24.18
2023-01-19T04:32:46.809Z,24.25
2023-01-19T04:35:13.401Z,24.30
2023-01-19T04:37:40.169Z,24.30
2023-01-19T04:40:07.539Z,24.33
2023-01-19T04:42:34.149Z,24.35
2023-01-19T04:45:00.750Z,24.36
2023-01-19T04:47:27.442Z,24.38
2023-01-19T04:49:53.990Z,24.39
2023-01-19T04:52:20.518Z,24.40
2023-01-19T04:54:47.650Z,24.42
2023-01-19T04:57:14.251Z,24.51
2023-01-19T04:59:40.897Z,24.70
2023-01-19T05:02:07.571Z,24.74
2023-01-19T05:04:34.262Z,24.74
2023-01-19T05:07:00.842Z,24.78
2023-01-19T05:09:27.575Z,24.81
2023-01-19T05:11:54.132Z,24.86
2023-01-19T05:14:20.820Z,24.90
2023-01-19T05:16:47.339Z,24.91
2023-01-19T05:19:14.075Z,24.99
2023-01-19T05:21:41.139Z,25.00
2023-01-19T05:24:08.509Z,25.13
2023-01-19T05:26:35.183Z,25.14
2023-01-19T05:29:01.791Z,25.24
2023-01-19T05:31:28.539Z,25.32
2023-01-19T05:33:55.172Z,25.37
2023-01-19T05:36:21.688Z,25.44
2023-01-19T05:38:48.442Z,25.51
2023-01-19T05:41:15.166Z,25.57
2023-01-19T05:43:41.856Z,25.62
2023-01-19T05:46:08.488Z,25.67
2023-01-19T05:48:36.189Z,25.75
2023-01-19T05:51:02.720Z,25.80
2023-01-19T05:53:29.319Z,25.84
2023-01-19T05:56:05.088Z,25.90
2023-01-19T05:58:32.511Z,25.94
2023-01-19T06:01:02.987Z,25.99
2023-01-19T06:03:29.625Z,26.04
2023-01-19T06:05:57.925Z,26.10
2023-01-19T06:08:24.572Z,26.13
2023-01-19T06:10:51.904Z,26.19
2023-01-19T06:13:18.588Z,26.27
2023-01-19T06:15:45.225Z,26.33
2023-01-19T06:18:12.660Z,26.40
2023-01-19T06:20:39.442Z,26.46
2023-01-19T06:23:06.426Z,26.51
2023-01-19T06:25:33.085Z,26.55
2023-01-19T06:27:59.777Z,26.59
2023-01-19T06:30:26.988Z,26.64
2023-01-19T06:32:53.809Z,26.64
2023-01-19T06:35:20.857Z,26.70
2023-01-19T06:37:47.426Z,26.77
2023-01-19T06:40:14.599Z,26.73
2023-01-19T06:42:42.143Z,26.81
2023-01-19T06:45:10.043Z,26.84
2023-01-19T06:47:37.011Z,26.83
2023-01-19T06:50:03.697Z,26.85
2023-01-19T06:52:30.584Z,26.86
2023-01-19T06:54:57.394Z,26.81
2023-01-19T06:57:25.768Z,26.79
2023-01-19T06:59:52.572Z,26.76
2023-01-19T07:02:26.154Z,26.73
2023-01-19T07:04:55.033Z,26.70
2023-01-19T07:07:21.783Z,26.66
2023-01-19T07:09:48.704Z,26.64
2023-01-19T07:12:15.303Z,26.62
2023-01-19T07:14:42.406Z,26.56
2023-01-19T07:17:09.770Z,26.58
2023-01-19T07:19:36.566Z,26.58
2023-01-19T07:22:03.197Z,26.46
2023-01-19T07:24:30.718Z,26.28
2023-01-19T07:26:57.489Z,26.05
2023-01-19T07:29:25.449Z,25.91
2023-01-19T07:31:54.941Z,25.75
2023-01-19T07:34:21.602Z,25.67
2023-01-19T07:36:48.651Z,25.57
2023-01-19T07:39:15.267Z,25.49
2023-01-19T07:41:41.816Z,25.40
2023-01-19T07:44:08.782Z,25.34
2023-01-19T07:46:53.640Z,25.27
2023-01-19T07:49:39.446Z,25.20
2023-01-19T07:52:24.496Z,25.15
2023-01-19T07:55:09.799Z,25.11
2023-01-19T07:57:54.683Z,25.08
2023-01-19T08:00:39.975Z,25.03
2023-01-19T08:03:25.488Z,25.01
2023-01-19T08:06:24.196Z,24.95
2023-01-19T08:09:09.997Z,24.90
2023-01-19T08:11:55.199Z,24.86
2023-01-19T08:14:40.608Z,24.80
2023-01-19T08:17:25.548Z,24.75
2023-01-19T08:20:11.384Z,24.71
2023-01-19T08:23:00.205Z,24.65
2023-01-19T08:25:46.278Z,24.64
2023-01-19T08:28:31.376Z,24.63
2023-01-19T08:31:21.196Z,24.62
2023-01-19T08:34:08.611Z,24.59
2023-01-19T08:36:53.584Z,24.55
2023-01-19T08:39:38.653Z,24.52
2023-01-19T08:42:23.509Z,24.43
2023-01-19T08:45:09.401Z,24.48
2023-01-19T08:47:55.863Z,24.44
2023-01-19T08:50:41.157Z,24.43
2023-01-19T08:53:26.315Z,24.39
2023-01-19T08:56:12.568Z,24.39
2023-01-19T08:59:08.683Z,24.39
2023-01-19T09:01:54.327Z,24.39
2023-01-19T09:04:39.574Z,24.39
2023-01-19T09:07:24.846Z,24.40
2023-01-19T09:10:10.443Z,24.38
2023-01-19T09:12:55.458Z,24.40
2023-01-19T09:15:41.085Z,24.37
2023-01-19T09:18:26.176Z,24.36
2023-01-19T09:21:11.282Z,24.36
2023-01-19T09:23:57.666Z,24.35
2023-01-19T09:26:43.038Z,24.33
2023-01-19T09:29:28.433Z,24.31
2023-01-19T09:32:13.523Z,24.30
2023-01-19T09:34:58.485Z,24.28
2023-01-19T09:37:47.348Z,24.26
2023-01-19T09:40:32.657Z,24.24
2023-01-19T09:43:34.106Z,24.25
2023-01-19T09:46:20.393Z,24.23
2023-01-19T09:49:10.226Z,24.23
2023-01-19T09:51:55.137Z,24.21
2023-01-19T09:54:45.399Z,24.21
2023-01-19T09:57:32.150Z,24.19
2023-01-19T10:00:17.849Z,24.19
2023-01-19T10:03:16.420Z,24.18
2023-01-19T10:06:03.642Z,24.17
2023-01-19T10:08:53.956Z,24.15
2023-01-19T10:11:52.695Z,24.13
2023-01-19T10:14:40.924Z,24.12
2023-01-19T10:17:35.470Z,24.12
2023-01-19T10:20:23.052Z,24.12
2023-01-19T10:23:20.507Z,24.11
2023-01-19T10:26:07.092Z,24.09
2023-01-19T10:29:12.263Z,24.09
2023-01-19T10:32:21.197Z,24.07
2023-01-19T10:35:14.344Z,24.07
2023-01-19T10:38:01.298Z,24.05
2023-01-19T10:40:48.866Z,24.04
2023-01-19T10:43:33.996Z,24.04
2023-01-19T10:46:19.413Z,24.04
2023-01-19T10:49:04.783Z,24.04
2023-01-19T10:51:49.995Z,24.05
2023-01-19T10:54:36.310Z,24.03
2023-01-19T10:57:25.906Z,24.01
2023-01-19T11:00:29.111Z,24.00
2023-01-19T11:03:30.217Z,23.99
2023-01-19T11:06:21.265Z,23.99
2023-01-19T11:09:16.816Z,24.04
2023-01-19T11:12:02.145Z,24.10
2023-01-19T11:14:47.641Z,24.13
2023-01-19T11:17:32.854Z,24.14
2023-01-19T11:20:22.944Z,24.14
2023-01-19T11:23:16.619Z,24.12
2023-01-19T11:26:01.773Z,24.11
2023-01-19T11:28:47.857Z,24.09
2023-01-19T11:31:33.822Z,24.05
2023-01-19T11:34:32.765Z,24.03
2023-01-19T11:37:20.500Z,24.00
2023-01-19T11:40:06.062Z,23.99
2023-01-19T11:42:51.414Z,23.98
2023-01-19T11:45:36.831Z,23.96
2023-01-19T11:48:33.400Z,23.94
2023-01-19T11:51:18.862Z,23.94
2023-01-19T11:54:06.900Z,23.89
2023-01-19T11:56:52.201Z,23.83
2023-01-19T11:59:37.325Z,23.81
2023-01-19T12:02:24.437Z,23.81
2023-01-19T12:05:12.410Z,23.81
2023-01-19T12:07:58.413Z,23.82
2023-01-19T12:10:44.283Z,23.82
2023-01-19T12:13:30.259Z,23.83
2023-01-19T12:16:22.662Z,23.82
2023-01-19T12:19:11.264Z,23.83
2023-01-19T12:21:56.206Z,23.82
2023-01-19T12:24:42.316Z,23.80
2023-01-19T12:27:40.506Z,23.81
2023-01-19T12:30:26.748Z,23.80
2023-01-19T12:33:26.766Z,23.80
2023-01-19T12:36:38.696Z,23.79
2023-01-19T12:39:23.648Z,23.79
2023-01-19T12:42:12.796Z,23.79
2023-01-19T12:45:05.443Z,23.79
2023-01-19T12:47:54.082Z,23.77
2023-01-19T12:50:39.347Z,23.75
2023-01-19T12:53:26.454Z,23.75
2023-01-19T12:56:11.736Z,23.75
2023-01-19T12:58:56.806Z,23.75
2023-01-19T13:01:41.951Z,23.74
2023-01-19T13:04:30.354Z,23.75
2023-01-19T13:07:17.995Z,23.73
2023-01-19T13:10:23.116Z,23.73
2023-01-19T13:13:18.345Z,23.71
2023-01-19T13:16:18.875Z,23.71
2023-01-19T13:19:07.247Z,23.68
2023-01-19T13:21:54.126Z,23.66
2023-01-19T13:24:58.367Z,23.65
2023-01-19T13:27:43.529Z,23.64
2023-01-19T13:30:28.957Z,23.64
2023-01-19T13:33:21.729Z,23.60
2023-01-19T13:36:07.841Z,23.54
2023-01-19T13:38:52.893Z,23.51
2023-01-19T13:41:38.422Z,23.50
2023-01-19T13:44:27.612Z,23.50
2023-01-19T13:47:15.344Z,23.49
2023-01-19T13:50:00.717Z,23.49
2023-01-19T13:52:46.171Z,23.50
2023-01-19T13:55:31.061Z,23.52
2023-01-19T13:58:23.339Z,23.52
2023-01-19T14:01:19.932Z,23.52
2023-01-19T14:04:05.440Z,23.51
2023-01-19T14:06:54.162Z,23.45
2023-01-19T14:09:39.798Z,23.39
2023-01-19T14:12:16.132Z,23.38
2023-01-19T14:14:42.937Z,23.37
2023-01-19T14:17:21.098Z,23.37
2023-01-19T14:19:50.962Z,23.38
2023-01-19T14:22:17.666Z,23.39
2023-01-19T14:24:44.398Z,23.38
2023-01-19T14:27:19.139Z,23.38
2023-01-19T14:29:47.344Z,23.34
2023-01-19T14:32:20.851Z,23.32
2023-01-19T14:34:48.722Z,23.30
2023-01-19T14:37:19.718Z,23.31
2023-01-19T14:39:47.451Z,23.30
2023-01-19T14:42:17.362Z,23.31
2023-01-19T14:44:47.962Z,23.31
2023-01-19T14:47:22.947Z,23.30
2023-01-19T14:49:49.555Z,23.30
2023-01-19T14:52:25.161Z,23.32
2023-01-19T14:54:51.965Z,23.31
2023-01-19T14:57:18.548Z,23.32
2023-01-19T14:59:48.402Z,23.32
2023-01-19T15:02:15.242Z,23.33
2023-01-19T15:04:41.898Z,23.33
2023-01-19T15:07:11.369Z,23.33
2023-01-19T15:09:37.910Z,23.32
2023-01-19T15:12:04.523Z,23.33
2023-01-19T15:14:31.031Z,23.32
2023-01-19T15:16:57.835Z,23.32
2023-01-19T15:19:24.273Z,23.32
2023-01-19T15:21:51.235Z,23.31
2023-01-19T15:24:18.168Z,23.32
2023-01-19T15:26:44.692Z,23.31
2023-01-19T15:29:15.826Z,23.32
2023-01-19T15:31:42.390Z,23.32
2023-01-19T15:34:11.379Z,23.30
2023-01-19T15:36:37.870Z,23.30
2023-01-19T15:39:04.529Z,23.29
2023-01-19T15:41:31.096Z,23.28
2023-01-19T15:43:57.707Z,23.29
2023-01-19T15:46:25.226Z,23.28
2023-01-19T15:48:51.754Z,23.27
2023-01-19T15:51:22.625Z,23.27
2023-01-19T15:53:49.625Z,23.27
2023-01-19T15:56:20.352Z,23.27
2023-01-19T15:58:46.943Z,23.26
2023-01-19T16:01:14.499Z,23.25
2023-01-19T16:03:41.377Z,23.25
2023-01-19T16:06:08.792Z,23.25
2023-01-19T16:08:35.733Z,23.24
2023-01-19T16:11:06.001Z,23.24
2023-01-19T16:13:32.936Z,23.22
2023-01-19T16:16:04.273Z,23.24
2023-01-19T16:18:30.835Z,23.22
2023-01-19T16:20:57.533Z,23.22
2023-01-19T16:23:24.053Z,23.22
2023-01-19T16:26:17.652Z,23.21
2023-01-19T16:28:44.356Z,23.22
2023-01-19T16:31:10.792Z,23.21
2023-01-19T16:33:37.250Z,23.19
2023-01-19T16:36:23.060Z,23.13
2023-01-19T16:38:49.900Z,23.07
2023-01-19T16:41:17.106Z,23.04
2023-01-19T16:43:43.599Z,23.04
2023-01-19T16:46:16.997Z,23.03
2023-01-19T16:48:43.608Z,23.03
2023-01-19T16:51:10.047Z,23.03
2023-01-19T16:53:37.345Z,23.03
2023-01-19T16:56:04.611Z,23.05
2023-01-19T16:58:31.272Z,23.08
2023-01-19T17:00:57.813Z,23.09
2023-01-19T17:03:24.367Z,23.10
2023-01-19T17:05:52.135Z,23.11
2023-01-19T17:08:19.665Z,23.11
2023-01-19T17:10:47.011Z,23.11
2023-01-19T17:13:13.472Z,23.13
2023-01-19T17:15:40.014Z,23.13
2023-01-19T17:18:07.014Z,23.12
2023-01-19T17:20:33.916Z,23.14
2023-01-19T17:23:00.416Z,23.14
2023-01-19T17:25:26.871Z,23.13
2023-01-19T17:27:53.500Z,23.14
2023-01-19T17:30:20.588Z,23.15
2023-01-19T17:32:47.625Z,23.15
2023-01-19T17:35:14.113Z,23.14
2023-01-19T17:37:40.586Z,23.15
2023-01-19T17:40:07.474Z,23.16
2023-01-19T17:42:34.188Z,23.17
2023-01-19T17:45:00.648Z,23.19
2023-01-19T17:47:28.246Z,23.18
2023-01-19T17:49:54.717Z,23.19
2023-01-19T17:52:21.190Z,23.21
2023-01-19T17:54:47.848Z,23.23
2023-01-19T17:57:15.139Z,23.26
2023-01-19T17:59:43.919Z,23.30
2023-01-19T18:02:10.543Z,23.35
2023-01-19T18:04:38.264Z,23.40
2023-01-19T18:07:04.997Z,23.41
2023-01-19T18:09:31.544Z,23.44
2023-01-19T18:11:59.664Z,23.46
2023-01-19T18:14:26.169Z,23.50
2023-01-19T18:16:52.666Z,23.54
2023-01-19T18:19:22.106Z,23.55
2023-01-19T18:21:48.621Z,23.56
2023-01-19T18:24:15.759Z,23.58
2023-01-19T18:26:42.618Z,23.60
2023-01-19T18:29:09.107Z,23.64
2023-01-19T18:31:35.618Z,23.68
2023-01-19T18:34:02.244Z,23.70
2023-01-19T18:36:29.657Z,23.73
2023-01-19T18:38:56.395Z,23.75
2023-01-19T18:41:22.981Z,23.77
2023-01-19T18:43:49.552Z,23.79
2023-01-19T18:46:16.508Z,23.81
2023-01-19T18:48:43.284Z,23.83
2023-01-19T18:51:10.974Z,23.88
2023-01-19T18:53:37.669Z,23.90
2023-01-19T18:56:04.833Z,23.92
2023-01-19T18:58:32.429Z,23.97
2023-01-19T19:00:59.557Z,24.01
2023-01-19T19:03:26.929Z,24.02
2023-01-19T19:05:53.628Z,24.05
2023-01-19T19:08:20.068Z,24.08
2023-01-19T19:10:46.792Z,24.09
2023-01-19T19:13:14.144Z,24.12
2023-01-19T19:15:40.894Z,24.14
2023-01-19T19:18:08.941Z,24.17
2023-01-19T19:20:38.782Z,24.20
2023-01-19T19:23:05.233Z,24.22
2023-01-19T19:25:32.067Z,24.24
2023-01-19T19:27:58.935Z,24.26
2023-01-19T19:30:25.547Z,24.27
2023-01-19T19:32:56.108Z,24.30
2023-01-19T19:35:23.152Z,24.32
2023-01-19T19:37:49.596Z,24.35
2023-01-19T19:40:16.725Z,24.37
2023-01-19T19:42:43.872Z,24.40
2023-01-19T19:45:10.876Z,24.42
2023-01-19T19:47:37.367Z,24.44
2023-01-19T19:50:03.871Z,24.46
2023-01-19T19:52:30.415Z,24.45
2023-01-19T19:54:56.964Z,24.47
2023-01-19T19:57:24.111Z,24.48
2023-01-19T19:59:50.618Z,24.50
2023-01-19T20:02:17.576Z,24.53
2023-01-19T20:04:44.954Z,24.55
2023-01-19T20:07:11.466Z,24.56
2023-01-19T20:09:37.950Z,24.58
2023-01-19T20:12:04.844Z,24.60
2023-01-19T20:14:31.519Z,24.61
2023-01-19T20:16:57.996Z,24.62
2023-01-19T20:19:24.559Z,24.63
2023-01-19T20:21:51.015Z,24.65
2023-01-19T20:24:18.299Z,24.68
2023-01-19T20:26:50.332Z,24.70
2023-01-19T20:29:17.052Z,24.73
2023-01-19T20:31:45.276Z,24.75
2023-01-19T20:34:12.542Z,24.75
2023-01-19T20:36:39.330Z,24.75
2023-01-19T20:39:08.435Z,24.74
2023-01-19T20:41:35.989Z,24.74
2023-01-19T20:44:02.474Z,24.76
2023-01-19T20:46:28.994Z,24.77
2023-01-19T20:48:55.826Z,24.77
2023-01-19T20:51:22.983Z,24.78
2023-01-19T20:53:49.621Z,24.80
2023-01-19T20:56:16.305Z,24.81
2023-01-19T20:58:42.964Z,24.84
2023-01-19T21:01:10.812Z,24.85
2023-01-19T21:03:37.569Z,24.88
2023-01-19T21:06:04.457Z,24.89
2023-01-19T21:08:30.931Z,24.89
2023-01-19T21:10:57.497Z,24.91
2023-01-19T21:13:24.492Z,24.90
2023-01-19T21:15:51.043Z,24.91
2023-01-19T21:18:17.811Z,24.92
2023-01-19T21:20:44.977Z,24.92
2023-01-19T21:23:11.508Z,24.96
2023-01-19T21:25:38.252Z,24.99
2023-01-19T21:28:05.614Z,24.99
2023-01-19T21:30:32.086Z,25.00
2023-01-19T21:32:58.656Z,25.01
2023-01-19T21:35:25.229Z,25.03
2023-01-19T21:37:51.744Z,25.05
2023-01-19T21:40:18.448Z,25.07
2023-01-19T21:42:44.927Z,25.07
2023-01-19T21:45:11.633Z,25.07
2023-01-19T21:47:38.476Z,25.08
2023-01-19T21:50:05.048Z,25.08
2023-01-19T21:52:31.660Z,25.08
2023-01-19T21:54:58.172Z,25.08
2023-01-19T21:57:24.654Z,25.06
2023-01-19T21:59:51.086Z,25.05
2023-01-19T22:02:29.857Z,25.03
2023-01-19T22:05:06.396Z,25.02
2023-01-19T22:07:33.111Z,25.01
2023-01-19T22:09:59.624Z,25.00
2023-01-19T22:12:26.059Z,24.99
2023-01-19T22:14:52.591Z,24.96
2023-01-19T22:17:19.026Z,24.95
2023-01-19T22:19:45.854Z,24.92
2023-01-19T22:22:12.483Z,24.92
2023-01-19T22:24:39.336Z,24.89
2023-01-19T22:27:05.965Z,24.87
2023-01-19T22:29:32.448Z,24.84
2023-01-19T22:31:58.905Z,24.84
2023-01-19T22:34:26.396Z,24.81
2023-01-19T22:36:53.070Z,24.79
2023-01-19T22:39:19.725Z,24.76
2023-01-19T22:41:46.565Z,24.74
2023-01-19T22:44:14.601Z,24.72
2023-01-19T22:46:41.230Z,24.70
2023-01-19T22:49:08.429Z,24.70
2023-01-19T22:51:35.568Z,24.68
2023-01-19T22:54:02.298Z,24.67
2023-01-19T22:56:29.370Z,24.65
2023-01-19T22:58:56.030Z,24.61
2023-01-19T23:01:23.721Z,24.60
2023-01-19T23:03:50.482Z,24.58
2023-01-19T23:06:18.210Z,24.56
2023-01-19T23:08:44.849Z,24.56
2023-01-19T23:11:15.048Z,24.53
2023-01-19T23:13:41.756Z,24.51
2023-01-19T23:16:08.971Z,24.49
2023-01-19T23:18:36.090Z,24.48
2023-01-19T23:21:03.492Z,24.46
2023-01-19T23:23:30.639Z,24.44
2023-01-19T23:26:03.956Z,24.43
2023-01-19T23:28:31.310Z,24.41
2023-01-19T23:30:57.830Z,24.39
2023-01-19T23:33:24.448Z,24.37
2023-01-19T23:35:50.972Z,24.36
2023-01-19T23:38:17.580Z,24.34
2023-01-19T23:40:44.057Z,24.33
2023-01-19T23:43:10.589Z,24.31
2023-01-19T23:45:37.105Z,24.30
2023-01-19T23:48:04.071Z,24.29
2023-01-19T23:50:30.529Z,24.28
2023-01-19T23:52:57.192Z,24.26
2023-01-19T23:55:23.860Z,24.25
2023-01-19T23:57:50.700Z,24.23
